createdAt,value
2018-11-29T00:00:36.441Z,100996.00
2018-11-29T00:03:05.325Z,101007.00
2018-11-29T00:05:32.926Z,101015.00
2018-11-29T00:08:00.452Z,101011.00
2018-11-29T00:10:28.130Z,101010.00
2018-11-29T00:12:55.662Z,101012.00
2018-11-29T00:15:23.233Z,101011.00
2018-11-29T00:17:50.805Z,101004.00
2018-11-29T00:20:19.454Z,100999.00
2018-11-29T00:22:48.271Z,100994.00
2018-11-29T00:25:17.083Z,100992.00
2018-11-29T00:27:45.034Z,100987.00
2018-11-29T00:30:21.146Z,100988.00
2018-11-29T00:32:49.604Z,100977.00
2018-11-29T00:35:17.397Z,100976.00
2018-11-29T00:37:45.258Z,100989.00
2018-11-29T00:40:21.053Z,100987.00
2018-11-29T00:42:48.685Z,100991.00
2018-11-29T00:45:19.324Z,100997.00
2018-11-29T00:47:47.475Z,100992.00
2018-11-29T00:50:16.630Z,100994.00
2018-11-29T00:52:46.077Z,100993.00
2018-11-29T00:55:18.011Z,100985.00
2018-11-29T00:57:45.539Z,100980.00
2018-11-29T01:00:18.939Z,100972.00
2018-11-29T01:02:46.529Z,100966.00
2018-11-29T01:05:14.212Z,100968.00
2018-11-29T01:07:42.027Z,100968.00
2018-11-29T01:10:12.142Z,100978.00
2018-11-29T01:12:39.992Z,100980.00
2018-11-29T01:15:11.267Z,100971.00
2018-11-29T01:17:39.065Z,100966.00
2018-11-29T01:20:12.581Z,100957.00
2018-11-29T01:22:40.194Z,100972.00
2018-11-29T01:25:10.309Z,100978.00
2018-11-29T01:27:38.202Z,100980.00
2018-11-29T01:30:11.091Z,100980.00
2018-11-29T01:32:38.983Z,100984.00
2018-11-29T01:35:08.064Z,100989.00
2018-11-29T01:37:35.599Z,100994.00
2018-11-29T01:40:03.505Z,101005.00
2018-11-29T01:42:31.102Z,101001.00
2018-11-29T01:44:58.687Z,100973.00
2018-11-29T01:47:26.447Z,100982.00
2018-11-29T01:49:54.048Z,100986.00
2018-11-29T01:52:21.594Z,100988.00
2018-11-29T01:54:49.408Z,100982.00
2018-11-29T01:57:16.972Z,100972.00
2018-11-29T01:59:44.548Z,100967.00
2018-11-29T02:02:12.267Z,100975.00
2018-11-29T02:04:39.852Z,100965.00
2018-11-29T02:07:07.375Z,100974.00
2018-11-29T02:09:35.014Z,100975.00
2018-11-29T02:12:02.570Z,100977.00
2018-11-29T02:14:30.150Z,100972.00
2018-11-29T02:16:58.120Z,100965.00
2018-11-29T02:19:25.625Z,100955.00
2018-11-29T02:21:53.238Z,100953.00
2018-11-29T02:24:21.027Z,100954.00
2018-11-29T02:26:48.592Z,100954.00
2018-11-29T02:29:16.201Z,100951.00
2018-11-29T02:31:43.985Z,100945.00
2018-11-29T02:34:11.562Z,100938.00
2018-11-29T02:36:39.090Z,100940.00
2018-11-29T02:39:08.417Z,100934.00
2018-11-29T02:41:36.318Z,100921.00
2018-11-29T02:44:04.294Z,100926.00
2018-11-29T02:46:31.931Z,100917.00
2018-11-29T02:48:59.472Z,100930.00
2018-11-29T02:51:27.033Z,100916.00
2018-11-29T02:53:55.106Z,100928.00
2018-11-29T02:56:22.950Z,100919.00
2018-11-29T02:58:50.474Z,100911.00
2018-11-29T03:01:17.997Z,100908.00
2018-11-29T03:03:45.733Z,100913.00
2018-11-29T03:06:13.362Z,100915.00
2018-11-29T03:08:41.121Z,100901.00
2018-11-29T03:11:08.731Z,100892.00
2018-11-29T03:13:36.250Z,100885.00
2018-11-29T03:16:03.967Z,100889.00
2018-11-29T03:18:31.633Z,100884.00
2018-11-29T03:20:59.255Z,100890.00
2018-11-29T03:23:28.428Z,100885.00
2018-11-29T03:25:55.972Z,100884.00
2018-11-29T03:28:23.551Z,100893.00
2018-11-29T03:30:53.198Z,100887.00
2018-11-29T03:33:50.038Z,100896.00
2018-11-29T03:36:17.898Z,100899.00
2018-11-29T03:38:45.532Z,100898.00
2018-11-29T03:41:13.106Z,100886.00
2018-11-29T03:43:41.058Z,100891.00
2018-11-29T03:46:08.582Z,100887.00
2018-11-29T03:48:36.141Z,100891.00
2018-11-29T03:51:04.116Z,100882.00
2018-11-29T03:53:31.681Z,100876.00
2018-11-29T03:55:59.246Z,100884.00
2018-11-29T03:58:27.094Z,100879.00
2018-11-29T04:00:54.696Z,100876.00
2018-11-29T04:03:22.256Z,100874.00
2018-11-29T04:05:50.601Z,100878.00
2018-11-29T04:08:18.142Z,100884.00
2018-11-29T04:10:45.687Z,100866.00
2018-11-29T04:13:13.480Z,100866.00
2018-11-29T04:15:40.986Z,100870.00
2018-11-29T04:18:08.556Z,100874.00
2018-11-29T04:20:36.370Z,100882.00
2018-11-29T04:23:04.501Z,100873.00
2018-11-29T04:25:32.008Z,100873.00
2018-11-29T04:27:59.791Z,100868.00
2018-11-29T04:30:30.018Z,100879.00
2018-11-29T04:33:13.134Z,100878.00
2018-11-29T04:35:45.400Z,100863.00
2018-11-29T04:38:39.518Z,100864.00
2018-11-29T04:41:25.214Z,100877.00
2018-11-29T04:43:52.966Z,100873.00
2018-11-29T04:46:52.726Z,100877.00
2018-11-29T04:49:20.532Z,100890.00
2018-11-29T04:51:48.277Z,100877.00
2018-11-29T04:54:15.911Z,100867.00
2018-11-29T04:56:43.498Z,100876.00
2018-11-29T04:59:24.842Z,100874.00
2018-11-29T05:01:52.456Z,100872.00
2018-11-29T05:04:20.235Z,100860.00
2018-11-29T05:06:47.877Z,100856.00
2018-11-29T05:09:25.767Z,100855.00
2018-11-29T05:11:54.974Z,100863.00
2018-11-29T05:14:22.534Z,100865.00
2018-11-29T05:16:50.070Z,100859.00
2018-11-29T05:19:17.665Z,100860.00
2018-11-29T05:21:45.250Z,100867.00
2018-11-29T05:24:12.907Z,100868.00
2018-11-29T05:26:40.503Z,100869.00
2018-11-29T05:29:08.393Z,100875.00
2018-11-29T05:31:36.055Z,100885.00
2018-11-29T05:34:03.753Z,100870.00
2018-11-29T05:36:31.395Z,100878.00
2018-11-29T05:38:58.965Z,100884.00
2018-11-29T05:41:26.534Z,100876.00
2018-11-29T05:43:54.057Z,100859.00
2018-11-29T05:46:22.017Z,100872.00
2018-11-29T05:48:49.469Z,100881.00
2018-11-29T05:51:16.969Z,100885.00
2018-11-29T05:53:44.642Z,100872.00
2018-11-29T05:56:12.192Z,100875.00
2018-11-29T05:58:39.743Z,100868.00
2018-11-29T06:01:13.166Z,100860.00
2018-11-29T06:03:40.743Z,100866.00
2018-11-29T06:06:08.292Z,100858.00
2018-11-29T06:08:36.233Z,100872.00
2018-11-29T06:11:04.033Z,100869.00
2018-11-29T06:13:31.593Z,100876.00
2018-11-29T06:15:59.228Z,100871.00
2018-11-29T06:18:26.779Z,100867.00
2018-11-29T06:20:55.287Z,100862.00
2018-11-29T06:23:22.915Z,100855.00
2018-11-29T06:25:50.987Z,100861.00
2018-11-29T06:28:18.832Z,100854.00
2018-11-29T06:30:46.377Z,100856.00
2018-11-29T06:33:13.984Z,100856.00
2018-11-29T06:35:41.762Z,100862.00
2018-11-29T06:38:09.375Z,100864.00
2018-11-29T06:40:36.881Z,100856.00
2018-11-29T06:43:05.058Z,100863.00
2018-11-29T06:45:32.581Z,100871.00
2018-11-29T06:48:00.170Z,100864.00
2018-11-29T06:50:28.410Z,100852.00
2018-11-29T06:52:55.935Z,100857.00
2018-11-29T06:55:24.384Z,100843.00
2018-11-29T06:57:52.742Z,100852.00
2018-11-29T07:00:30.405Z,100862.00
2018-11-29T07:02:58.526Z,100854.00
2018-11-29T07:05:26.150Z,100856.00
2018-11-29T07:07:53.744Z,100850.00
2018-11-29T07:10:27.141Z,100842.00
2018-11-29T07:12:54.955Z,100846.00
2018-11-29T07:15:22.605Z,100851.00
2018-11-29T07:17:50.160Z,100848.00
2018-11-29T07:20:18.140Z,100839.00
2018-11-29T07:22:46.249Z,100850.00
2018-11-29T07:25:13.814Z,100839.00
2018-11-29T07:27:41.709Z,100852.00
2018-11-29T07:30:14.864Z,100859.00
2018-11-29T07:32:42.590Z,100849.00
2018-11-29T07:35:11.652Z,100852.00
2018-11-29T07:37:39.653Z,100848.00
2018-11-29T07:40:10.173Z,100838.00
2018-11-29T07:42:37.106Z,100846.00
2018-11-29T07:45:14.922Z,100845.00
2018-11-29T07:47:43.353Z,100833.00
2018-11-29T07:50:13.661Z,100828.00
2018-11-29T07:52:41.399Z,100824.00
2018-11-29T07:55:14.454Z,100826.00
2018-11-29T07:57:43.067Z,100828.00
2018-11-29T08:00:15.067Z,100828.00
2018-11-29T08:02:42.770Z,100835.00
2018-11-29T08:05:11.871Z,100824.00
2018-11-29T08:07:41.058Z,100821.00
2018-11-29T08:10:13.980Z,100823.00
2018-11-29T08:12:41.505Z,100823.00
2018-11-29T08:15:11.902Z,100823.00
2018-11-29T08:17:39.503Z,100823.00
2018-11-29T08:20:10.235Z,100832.00
2018-11-29T08:22:38.226Z,100821.00
2018-11-29T08:25:11.441Z,100820.00
2018-11-29T08:27:39.218Z,100810.00
2018-11-29T08:30:22.934Z,100825.00
2018-11-29T08:32:50.944Z,100818.00
2018-11-29T08:35:18.505Z,100818.00
2018-11-29T08:37:46.643Z,100809.00
2018-11-29T08:40:17.144Z,100794.00
2018-11-29T08:42:44.784Z,100810.00
2018-11-29T08:45:12.338Z,100803.00
2018-11-29T08:47:40.189Z,100800.00
2018-11-29T08:50:08.877Z,100811.00
2018-11-29T08:52:37.133Z,100796.00
2018-11-29T08:55:08.173Z,100802.00
2018-11-29T08:57:35.711Z,100797.00
2018-11-29T09:00:08.531Z,100800.00
2018-11-29T09:02:36.066Z,100785.00
2018-11-29T09:05:04.088Z,100792.00
2018-11-29T09:07:32.139Z,100788.00
2018-11-29T09:09:59.673Z,100781.00
2018-11-29T09:12:27.246Z,100784.00
2018-11-29T09:14:54.998Z,100787.00
2018-11-29T09:17:22.619Z,100786.00
2018-11-29T09:19:50.129Z,100783.00
2018-11-29T09:22:17.987Z,100778.00
2018-11-29T09:24:45.307Z,100780.00
2018-11-29T09:27:12.865Z,100771.00
2018-11-29T09:29:40.709Z,100779.00
2018-11-29T09:32:08.266Z,100759.00
2018-11-29T09:34:36.041Z,100767.00
2018-11-29T09:37:03.863Z,100768.00
2018-11-29T09:39:31.428Z,100768.00
2018-11-29T09:41:59.009Z,100764.00
2018-11-29T09:44:27.068Z,100767.00
2018-11-29T09:46:54.597Z,100753.00
2018-11-29T09:49:22.591Z,100754.00
2018-11-29T09:51:50.361Z,100746.00
2018-11-29T09:54:17.920Z,100736.00
2018-11-29T09:56:45.519Z,100733.00
2018-11-29T09:59:13.454Z,100732.00
2018-11-29T10:01:41.019Z,100728.00
2018-11-29T10:04:08.508Z,100719.00
2018-11-29T10:06:36.287Z,100717.00
2018-11-29T10:09:07.616Z,100708.00
2018-11-29T10:11:35.198Z,100709.00
2018-11-29T10:14:03.079Z,100701.00
2018-11-29T10:16:30.671Z,100705.00
2018-11-29T10:18:58.215Z,100710.00
2018-11-29T10:21:26.173Z,100701.00
2018-11-29T10:23:53.734Z,100690.00
2018-11-29T10:26:21.294Z,100691.00
2018-11-29T10:28:49.079Z,100687.00
2018-11-29T10:31:16.658Z,100683.00
2018-11-29T10:33:44.182Z,100691.00
2018-11-29T10:36:11.969Z,100683.00
2018-11-29T10:38:39.561Z,100683.00
2018-11-29T10:41:07.084Z,100686.00
2018-11-29T10:43:34.782Z,100683.00
2018-11-29T10:46:02.359Z,100683.00
2018-11-29T10:48:29.921Z,100687.00
2018-11-29T10:50:57.769Z,100683.00
2018-11-29T10:53:25.290Z,100678.00
2018-11-29T10:55:52.961Z,100690.00
2018-11-29T10:58:20.747Z,100667.00
2018-11-29T11:00:54.258Z,100664.00
2018-11-29T11:03:22.050Z,100666.00
2018-11-29T11:05:51.841Z,100663.00
2018-11-29T11:08:20.105Z,100666.00
2018-11-29T11:10:47.958Z,100670.00
2018-11-29T11:13:15.454Z,100676.00
2018-11-29T11:15:42.982Z,100664.00
2018-11-29T11:18:12.231Z,100659.00
2018-11-29T11:20:41.341Z,100659.00
2018-11-29T11:23:09.221Z,100661.00
2018-11-29T11:25:36.806Z,100656.00
2018-11-29T11:28:06.623Z,100653.00
2018-11-29T11:30:35.402Z,100645.00
2018-11-29T11:33:02.930Z,100640.00
2018-11-29T11:35:30.707Z,100634.00
2018-11-29T11:37:58.764Z,100624.00
2018-11-29T11:40:26.321Z,100620.00
2018-11-29T11:42:53.842Z,100611.00
2018-11-29T11:45:22.131Z,100617.00
2018-11-29T11:47:49.649Z,100608.00
2018-11-29T11:50:25.246Z,100616.00
2018-11-29T11:52:54.383Z,100610.00
2018-11-29T11:55:21.995Z,100615.00
2018-11-29T11:57:49.539Z,100609.00
2018-11-29T12:00:19.708Z,100616.00
2018-11-29T12:02:49.919Z,100612.00
2018-11-29T12:05:17.437Z,100607.00
2018-11-29T12:07:45.035Z,100600.00
2018-11-29T12:10:15.066Z,100605.00
2018-11-29T12:12:42.619Z,100604.00
2018-11-29T12:15:12.564Z,100600.00
2018-11-29T12:17:41.341Z,100601.00
2018-11-29T12:20:12.594Z,100606.00
2018-11-29T12:22:40.360Z,100598.00
2018-11-29T12:25:11.703Z,100588.00
2018-11-29T12:27:39.299Z,100585.00
2018-11-29T12:30:13.213Z,100590.00
2018-11-29T12:32:40.753Z,100602.00
2018-11-29T12:35:08.313Z,100573.00
2018-11-29T12:37:36.950Z,100581.00
2018-11-29T12:40:07.501Z,100583.00
2018-11-29T12:42:35.023Z,100570.00
2018-11-29T12:45:02.871Z,100582.00
2018-11-29T12:47:30.409Z,100569.00
2018-11-29T12:49:57.944Z,100578.00
2018-11-29T12:52:25.781Z,100573.00
2018-11-29T12:54:54.101Z,100572.00
2018-11-29T12:57:22.563Z,100576.00
2018-11-29T12:59:50.312Z,100561.00
2018-11-29T13:02:17.840Z,100570.00
2018-11-29T13:04:45.450Z,100563.00
2018-11-29T13:07:13.308Z,100572.00
2018-11-29T13:09:40.889Z,100572.00
2018-11-29T13:12:08.432Z,100576.00
2018-11-29T13:14:36.817Z,100572.00
2018-11-29T13:17:05.062Z,100567.00
2018-11-29T13:19:32.593Z,100566.00
2018-11-29T13:22:00.461Z,100555.00
2018-11-29T13:24:27.929Z,100524.00
2018-11-29T13:26:55.493Z,100551.00
2018-11-29T13:29:23.249Z,100557.00
2018-11-29T13:31:50.822Z,100540.00
2018-11-29T13:34:18.345Z,100535.00
2018-11-29T13:36:46.052Z,100523.00
2018-11-29T13:39:13.642Z,100517.00
2018-11-29T13:41:41.164Z,100524.00
2018-11-29T13:44:09.247Z,100523.00
2018-11-29T13:46:36.842Z,100525.00
2018-11-29T13:49:05.052Z,100512.00
2018-11-29T13:51:32.863Z,100504.00
2018-11-29T13:54:01.161Z,100505.00
2018-11-29T13:56:31.075Z,100511.00
2018-11-29T13:58:58.822Z,100516.00
2018-11-29T14:01:26.407Z,100513.00
2018-11-29T14:03:53.935Z,100516.00
2018-11-29T14:06:21.627Z,100529.00
2018-11-29T14:08:49.202Z,100522.00
2018-11-29T14:11:16.730Z,100530.00
2018-11-29T14:13:44.479Z,100520.00
2018-11-29T14:16:12.023Z,100508.00
2018-11-29T14:18:39.585Z,100509.00
2018-11-29T14:21:07.433Z,100525.00
2018-11-29T14:23:35.000Z,100507.00
2018-11-29T14:26:04.271Z,100510.00
2018-11-29T14:28:31.833Z,100507.00
2018-11-29T14:30:59.372Z,100513.00
2018-11-29T14:33:27.199Z,100507.00
2018-11-29T14:35:54.761Z,100504.00
2018-11-29T14:38:22.335Z,100497.00
2018-11-29T14:40:50.284Z,100498.00
2018-11-29T14:43:17.880Z,100491.00
2018-11-29T14:45:45.458Z,100489.00
2018-11-29T14:48:13.333Z,100484.00
2018-11-29T14:50:43.232Z,100475.00
2018-11-29T14:53:10.664Z,100477.00
2018-11-29T14:55:39.495Z,100499.00
2018-11-29T14:58:09.057Z,100492.00
2018-11-29T15:00:36.654Z,100473.00
2018-11-29T15:03:09.992Z,100473.00
2018-11-29T15:05:37.583Z,100477.00
2018-11-29T15:08:06.778Z,100465.00
2018-11-29T15:10:35.409Z,100469.00
2018-11-29T15:13:02.969Z,100472.00
2018-11-29T15:15:30.554Z,100473.00
2018-11-29T15:17:58.418Z,100476.00
2018-11-29T15:20:35.511Z,100473.00
2018-11-29T15:23:03.375Z,100474.00
2018-11-29T15:25:30.895Z,100471.00
2018-11-29T15:27:58.430Z,100464.00
2018-11-29T15:30:26.385Z,100472.00
2018-11-29T15:32:53.920Z,100468.00
2018-11-29T15:35:21.514Z,100467.00
2018-11-29T15:37:49.262Z,100473.00
2018-11-29T15:40:17.529Z,100476.00
2018-11-29T15:42:45.275Z,100480.00
2018-11-29T15:45:19.765Z,100471.00
2018-11-29T15:47:47.306Z,100466.00
2018-11-29T15:50:15.286Z,100455.00
2018-11-29T15:52:43.063Z,100456.00
2018-11-29T15:55:12.782Z,100460.00
2018-11-29T15:57:40.303Z,100461.00
2018-11-29T16:00:28.685Z,100462.00
2018-11-29T16:03:00.123Z,100467.00
2018-11-29T16:05:27.733Z,100462.00
2018-11-29T16:07:55.486Z,100461.00
2018-11-29T16:10:24.562Z,100452.00
2018-11-29T16:12:52.165Z,100460.00
2018-11-29T16:15:20.847Z,100456.00
2018-11-29T16:17:49.796Z,100458.00
2018-11-29T16:20:29.243Z,100464.00
2018-11-29T16:22:56.975Z,100465.00
2018-11-29T16:25:24.562Z,100483.00
2018-11-29T16:27:52.359Z,100466.00
2018-11-29T16:30:30.074Z,100459.00
2018-11-29T16:33:01.663Z,100470.00
2018-11-29T16:35:29.197Z,100464.00
2018-11-29T16:37:56.739Z,100468.00
2018-11-29T16:40:24.333Z,100475.00
2018-11-29T16:42:52.047Z,100471.00
2018-11-29T16:45:19.710Z,100470.00
2018-11-29T16:47:47.715Z,100473.00
2018-11-29T16:50:15.921Z,100470.00
2018-11-29T16:52:43.441Z,100460.00
2018-11-29T16:55:11.950Z,100461.00
2018-11-29T16:57:42.930Z,100455.00
2018-11-29T17:00:13.409Z,100458.00
2018-11-29T17:02:40.967Z,100449.00
2018-11-29T17:05:10.861Z,100482.00
2018-11-29T17:07:38.665Z,100445.00
2018-11-29T17:10:09.539Z,100440.00
2018-11-29T17:12:37.233Z,100434.00
2018-11-29T17:15:08.334Z,100439.00
2018-11-29T17:17:36.107Z,100421.00
2018-11-29T17:20:08.654Z,100416.00
2018-11-29T17:22:36.539Z,100413.00
2018-11-29T17:25:05.783Z,100409.00
2018-11-29T17:27:33.364Z,100382.00
2018-11-29T17:30:01.193Z,100403.00
2018-11-29T17:32:29.147Z,100401.00
2018-11-29T17:34:56.816Z,100386.00
2018-11-29T17:37:24.610Z,100389.00
2018-11-29T17:39:52.238Z,100403.00
2018-11-29T17:42:20.454Z,100398.00
2018-11-29T17:44:52.081Z,100395.00
2018-11-29T17:47:22.403Z,100401.00
2018-11-29T17:49:49.955Z,100414.00
2018-11-29T17:52:17.583Z,100393.00
2018-11-29T17:54:45.121Z,100385.00
2018-11-29T17:57:12.703Z,100385.00
2018-11-29T17:59:40.219Z,100393.00
2018-11-29T18:02:08.303Z,100385.00
2018-11-29T18:04:35.849Z,100379.00
2018-11-29T18:07:03.539Z,100378.00
2018-11-29T18:09:31.406Z,100384.00
2018-11-29T18:11:58.979Z,100376.00
2018-11-29T18:14:26.643Z,100374.00
2018-11-29T18:16:54.431Z,100386.00
2018-11-29T18:19:22.120Z,100372.00
2018-11-29T18:21:49.762Z,100380.00
2018-11-29T18:24:17.750Z,100367.00
2018-11-29T18:26:45.735Z,100370.00
2018-11-29T18:29:13.311Z,100385.00
2018-11-29T18:31:40.943Z,100358.00
2018-11-29T18:34:08.635Z,100374.00
2018-11-29T18:36:36.536Z,100375.00
2018-11-29T18:39:07.614Z,100369.00
2018-11-29T18:41:35.217Z,100363.00
2018-11-29T18:44:03.203Z,100375.00
2018-11-29T18:46:30.905Z,100359.00
2018-11-29T18:48:59.607Z,100346.00
2018-11-29T18:51:27.466Z,100347.00
2018-11-29T18:53:55.462Z,100343.00
2018-11-29T18:56:23.198Z,100366.00
2018-11-29T18:58:51.034Z,100337.00
2018-11-29T19:01:18.727Z,100357.00
2018-11-29T19:03:46.545Z,100350.00
2018-11-29T19:06:15.591Z,100364.00
2018-11-29T19:08:43.682Z,100341.00
2018-11-29T19:11:11.247Z,100329.00
2018-11-29T19:13:38.925Z,100331.00
2018-11-29T19:16:06.501Z,100327.00
2018-11-29T19:18:34.435Z,100331.00
2018-11-29T19:21:02.053Z,100339.00
2018-11-29T19:23:29.598Z,100331.00
2018-11-29T19:25:57.558Z,100328.00
2018-11-29T19:28:25.742Z,100346.00
2018-11-29T19:30:53.485Z,100349.00
2018-11-29T19:33:23.778Z,100320.00
2018-11-29T19:35:53.091Z,100333.00
2018-11-29T19:38:20.650Z,100340.00
2018-11-29T19:40:48.567Z,100330.00
2018-11-29T19:43:16.159Z,100319.00
2018-11-29T19:45:43.902Z,100333.00
2018-11-29T19:48:11.945Z,100331.00
2018-11-29T19:50:39.534Z,100322.00
2018-11-29T19:53:10.219Z,100317.00
2018-11-29T19:55:37.885Z,100317.00
2018-11-29T19:58:05.919Z,100318.00
2018-11-29T20:00:33.454Z,100322.00
2018-11-29T20:03:01.395Z,100328.00
2018-11-29T20:05:28.969Z,100324.00
2018-11-29T20:07:56.579Z,100324.00
2018-11-29T20:10:24.823Z,100310.00
2018-11-29T20:13:08.851Z,100309.00
2018-11-29T20:15:38.939Z,100313.00
2018-11-29T20:18:08.742Z,100311.00
2018-11-29T20:20:36.459Z,100311.00
2018-11-29T20:23:04.545Z,100320.00
2018-11-29T20:25:32.133Z,100309.00
2018-11-29T20:28:00.453Z,100300.00
2018-11-29T20:30:28.295Z,100310.00
2018-11-29T20:32:55.888Z,100301.00
2018-11-29T20:35:24.254Z,100300.00
2018-11-29T20:37:53.299Z,100310.00
2018-11-29T20:40:26.088Z,100300.00
2018-11-29T20:42:55.602Z,100294.00
2018-11-29T20:45:36.857Z,100290.00
2018-11-29T20:48:28.677Z,100295.00
2018-11-29T20:50:58.147Z,100293.00
2018-11-29T20:53:38.919Z,100287.00
2018-11-29T20:56:28.063Z,100279.00
2018-11-29T20:58:56.770Z,100288.00
2018-11-29T21:01:41.864Z,100273.00
2018-11-29T21:04:10.505Z,100260.00
2018-11-29T21:06:38.567Z,100276.00
2018-11-29T21:09:10.310Z,100258.00
2018-11-29T21:11:38.307Z,100258.00
2018-11-29T21:14:06.223Z,100261.00
2018-11-29T21:16:33.851Z,100257.00
2018-11-29T21:19:01.671Z,100253.00
2018-11-29T21:21:29.241Z,100269.00
2018-11-29T21:23:56.813Z,100268.00
2018-11-29T21:26:24.419Z,100247.00
2018-11-29T21:28:51.963Z,100245.00
2018-11-29T21:31:19.756Z,100252.00
2018-11-29T21:33:47.326Z,100240.00
2018-11-29T21:36:14.970Z,100240.00
2018-11-29T21:38:42.753Z,100253.00
2018-11-29T21:41:10.373Z,100249.00
2018-11-29T21:43:37.879Z,100244.00
2018-11-29T21:46:05.600Z,100230.00
2018-11-29T21:48:33.231Z,100236.00
2018-11-29T21:51:00.787Z,100241.00
2018-11-29T21:53:27.989Z,100223.00
2018-11-29T21:55:55.586Z,100225.00
2018-11-29T21:58:23.261Z,100226.00
2018-11-29T22:00:50.862Z,100228.00
2018-11-29T22:03:18.481Z,100231.00
2018-11-29T22:05:46.068Z,100237.00
2018-11-29T22:08:13.651Z,100225.00
2018-11-29T22:10:41.404Z,100228.00
2018-11-29T22:13:08.946Z,100210.00
2018-11-29T22:15:36.542Z,100226.00
2018-11-29T22:18:18.764Z,100220.00
2018-11-29T22:20:48.500Z,100215.00
2018-11-29T22:23:16.137Z,100227.00
2018-11-29T22:25:44.214Z,100221.00
2018-11-29T22:28:12.027Z,100265.00
2018-11-29T22:30:39.847Z,100214.00
2018-11-29T22:33:07.403Z,100216.00
2018-11-29T22:35:34.979Z,100218.00
2018-11-29T22:38:02.759Z,100211.00
2018-11-29T22:40:30.465Z,100207.00
2018-11-29T22:42:58.038Z,100210.00
2018-11-29T22:45:25.745Z,100203.00
2018-11-29T22:47:53.343Z,100194.00
2018-11-29T22:50:21.537Z,100205.00
2018-11-29T22:52:49.152Z,100169.00
2018-11-29T22:55:16.781Z,100195.00
2018-11-29T22:57:44.418Z,100190.00
2018-11-29T23:00:16.895Z,100182.00
2018-11-29T23:02:46.955Z,100171.00
2018-11-29T23:05:14.751Z,100178.00
2018-11-29T23:07:42.352Z,100159.00
2018-11-29T23:10:11.177Z,100178.00
2018-11-29T23:12:39.204Z,100163.00
2018-11-29T23:15:09.899Z,100155.00
2018-11-29T23:17:37.487Z,100166.00
2018-11-29T23:20:11.383Z,100154.00
2018-11-29T23:22:39.851Z,100149.00
2018-11-29T23:25:10.597Z,100166.00
2018-11-29T23:27:38.180Z,100155.00
2018-11-29T23:30:10.544Z,100138.00
2018-11-29T23:32:38.131Z,100148.00
2018-11-29T23:35:05.732Z,100146.00
2018-11-29T23:37:33.487Z,100151.00
2018-11-29T23:40:01.019Z,100141.00
2018-11-29T23:42:28.627Z,100154.00
2018-11-29T23:44:56.473Z,100128.00
2018-11-29T23:47:24.041Z,100126.00
2018-11-29T23:49:51.922Z,100143.00
2018-11-29T23:52:19.652Z,100134.00
2018-11-29T23:54:47.168Z,100122.00
2018-11-29T23:57:14.927Z,100139.00
2018-11-29T23:59:42.676Z,100140.00
